createdAt,value
2023-11-24T00:00:56.681Z,4.93
2023-11-24T00:03:25.916Z,4.90
2023-11-24T00:05:54.451Z,5.65
2023-11-24T00:08:24.394Z,5.00
2023-11-24T00:10:52.812Z,4.78
2023-11-24T00:13:24.252Z,4.95
2023-11-24T00:15:54.021Z,5.60
2023-11-24T00:21:49.030Z,6.13
2023-11-24T00:24:48.196Z,5.15
2023-11-24T00:31:07.648Z,5.30
2023-11-24T00:33:36.408Z,5.07
2023-11-24T00:36:06.871Z,4.57
2023-11-24T00:38:38.058Z,5.32
2023-11-24T00:41:16.592Z,5.10
2023-11-24T00:43:47.019Z,5.28
2023-11-24T00:46:18.780Z,5.00
2023-11-24T00:48:47.196Z,6.03
2023-11-24T00:51:22.622Z,5.55
2023-11-24T00:53:52.682Z,5.55
2023-11-24T00:57:19.071Z,5.50
2023-11-24T01:00:04.449Z,5.65
2023-11-24T01:06:07.202Z,5.03
2023-11-24T01:08:35.508Z,5.25
2023-11-24T01:11:03.656Z,5.68
2023-11-24T01:13:34.414Z,5.35
2023-11-24T01:16:05.520Z,4.72
2023-11-24T01:18:39.400Z,5.13
2023-11-24T01:21:10.743Z,5.43
2023-11-24T01:23:42.053Z,5.40
2023-11-24T01:26:13.059Z,4.35
2023-11-24T01:32:03.359Z,4.13
2023-11-24T01:35:05.649Z,3.70
2023-11-24T01:41:15.640Z,3.35
2023-11-24T01:44:16.806Z,4.03
2023-11-24T01:46:48.160Z,4.25
2023-11-24T01:49:21.018Z,3.80
2023-11-24T01:51:50.096Z,4.05
2023-11-24T01:54:20.710Z,4.35
2023-11-24T01:56:49.260Z,4.28
2023-11-24T01:59:20.657Z,3.97
2023-11-24T02:01:52.688Z,4.15
2023-11-24T02:04:48.659Z,4.13
2023-11-24T02:07:16.941Z,4.13
2023-11-24T02:10:04.918Z,4.18
2023-11-24T02:12:36.991Z,4.43
2023-11-24T02:15:10.373Z,3.80
2023-11-24T02:17:46.104Z,4.20
2023-11-24T02:20:16.729Z,4.30
2023-11-24T02:22:46.322Z,4.63
2023-11-24T02:25:16.689Z,3.80
2023-11-24T02:27:45.396Z,4.53
2023-11-24T02:30:13.708Z,4.35
2023-11-24T02:32:41.861Z,4.10
2023-11-24T02:35:11.155Z,3.78
2023-11-24T02:37:42.555Z,3.45
2023-11-24T02:40:13.459Z,3.45
2023-11-24T02:45:57.455Z,3.55
2023-11-24T02:48:58.639Z,3.60
2023-11-24T02:51:26.920Z,3.42
2023-11-24T02:55:03.629Z,3.90
2023-11-24T02:57:34.256Z,3.38
2023-11-24T03:01:17.664Z,3.03
2023-11-24T03:03:46.186Z,3.50
2023-11-24T03:06:19.369Z,3.28
2023-11-24T03:15:49.028Z,3.47
2023-11-24T03:18:20.837Z,3.33
2023-11-24T03:20:51.640Z,3.67
2023-11-24T03:23:51.322Z,3.65
2023-11-24T03:27:16.956Z,3.17
2023-11-24T03:30:45.819Z,3.97
2023-11-24T03:33:27.758Z,3.70
2023-11-24T03:37:02.330Z,3.85
2023-11-24T03:42:45.952Z,3.85
2023-11-24T03:45:17.440Z,3.53
2023-11-24T03:47:46.404Z,4.38
2023-11-24T03:50:29.110Z,4.15
2023-11-24T03:53:21.230Z,3.97
2023-11-24T03:55:50.581Z,3.67
2023-11-24T03:58:19.516Z,3.42
2023-11-24T04:00:57.368Z,3.65
2023-11-24T04:03:31.479Z,3.13
2023-11-24T04:06:10.619Z,3.58
2023-11-24T04:09:28.136Z,3.17
2023-11-24T04:12:18.279Z,3.28
2023-11-24T04:14:46.883Z,2.80
2023-11-24T04:20:36.312Z,3.40
2023-11-24T04:23:14.912Z,3.15
2023-11-24T04:23:20.625Z,3.22
2023-11-24T04:25:49.999Z,3.10
2023-11-24T04:28:18.953Z,2.75
2023-11-24T04:31:10.835Z,2.90
2023-11-24T04:33:47.951Z,3.25
2023-11-24T04:45:16.254Z,3.20
2023-11-24T04:48:04.757Z,3.15
2023-11-24T04:50:43.904Z,3.05
2023-11-24T04:53:17.403Z,3.30
2023-11-24T05:02:52.588Z,2.55
2023-11-24T05:05:22.672Z,2.72
2023-11-24T05:12:10.304Z,2.45
2023-11-24T05:15:26.781Z,2.92
2023-11-24T05:17:59.198Z,2.60
2023-11-24T05:20:27.729Z,2.63
2023-11-24T05:23:17.130Z,3.33
2023-11-24T05:25:46.023Z,3.00
2023-11-24T05:28:18.129Z,2.90
2023-11-24T05:30:47.062Z,2.92
2023-11-24T05:33:17.001Z,2.80
2023-11-24T05:35:45.580Z,2.90
2023-11-24T05:38:15.512Z,3.20
2023-11-24T05:40:47.662Z,3.42
2023-11-24T05:43:16.361Z,3.40
2023-11-24T05:45:44.970Z,3.00
2023-11-24T05:48:24.335Z,3.60
2023-11-24T05:51:01.934Z,3.40
2023-11-24T05:56:43.290Z,3.78
2023-11-24T05:59:13.253Z,3.53
2023-11-24T06:01:43.776Z,3.40
2023-11-24T06:04:16.963Z,3.38
2023-11-24T06:06:48.906Z,3.58
2023-11-24T06:09:17.262Z,3.17
2023-11-24T06:11:45.752Z,3.40
2023-11-24T06:14:14.432Z,3.58
2023-11-24T06:16:43.141Z,3.45
2023-11-24T06:19:13.406Z,3.47
2023-11-24T06:21:42.116Z,3.40
2023-11-24T06:24:19.593Z,3.60
2023-11-24T06:26:48.459Z,3.20
2023-11-24T06:29:37.464Z,3.67
2023-11-24T06:32:07.282Z,3.60
2023-11-24T06:34:37.060Z,3.58
2023-11-24T06:37:05.795Z,3.53
2023-11-24T06:39:34.242Z,3.80
2023-11-24T06:42:22.792Z,3.50
2023-11-24T06:45:00.422Z,4.45
2023-11-24T06:50:57.234Z,3.42
2023-11-24T06:53:39.593Z,3.47
2023-11-24T06:56:10.890Z,3.35
2023-11-24T06:58:39.198Z,3.08
2023-11-24T07:01:07.291Z,3.00
2023-11-24T07:03:35.828Z,3.28
2023-11-24T07:06:07.981Z,3.08
2023-11-24T07:08:36.777Z,3.60
2023-11-24T07:11:06.150Z,3.90
2023-11-24T07:13:34.191Z,3.63
2023-11-24T07:16:02.258Z,3.30
2023-11-24T07:18:30.471Z,4.03
2023-11-24T07:21:02.022Z,3.45
2023-11-24T07:23:31.673Z,3.65
2023-11-24T07:25:59.780Z,3.75
2023-11-24T07:28:28.033Z,3.10
2023-11-24T07:30:56.034Z,3.25
2023-11-24T07:33:25.494Z,3.58
2023-11-24T07:35:53.453Z,3.55
2023-11-24T07:38:21.414Z,3.83
2023-11-24T07:40:50.814Z,3.60
2023-11-24T07:43:18.950Z,3.75
2023-11-24T07:45:50.341Z,3.97
2023-11-24T07:48:19.148Z,3.85
2023-11-24T07:50:46.984Z,3.50
2023-11-24T07:53:15.735Z,4.05
2023-11-24T07:55:44.059Z,3.65
2023-11-24T07:58:13.673Z,3.47
2023-11-24T08:00:41.672Z,3.75
2023-11-24T08:03:10.001Z,3.83
2023-11-24T08:05:38.081Z,3.85
2023-11-24T08:08:06.832Z,3.58
2023-11-24T08:10:34.849Z,3.40
2023-11-24T08:13:03.669Z,3.53
2023-11-24T08:15:34.199Z,3.33
2023-11-24T08:18:02.592Z,3.63
2023-11-24T08:20:30.675Z,4.00
2023-11-24T08:22:59.816Z,3.97
2023-11-24T08:25:28.144Z,4.30
2023-11-24T08:27:58.330Z,3.80
2023-11-24T08:30:26.800Z,3.95
2023-11-24T08:32:56.337Z,4.20
2023-11-24T08:35:24.664Z,4.40
2023-11-24T08:37:53.152Z,3.63
2023-11-24T08:40:23.090Z,4.00
2023-11-24T08:42:52.132Z,4.50
2023-11-24T08:45:20.371Z,4.90
2023-11-24T08:47:50.026Z,4.65
2023-11-24T08:50:19.914Z,4.22
2023-11-24T08:52:51.725Z,3.60
2023-11-24T08:55:24.297Z,4.78
2023-11-24T08:57:52.985Z,3.55
2023-11-24T09:00:21.599Z,3.40
2023-11-24T09:02:50.557Z,4.55
2023-11-24T09:05:28.515Z,3.83
2023-11-24T09:08:03.788Z,5.63
2023-11-24T09:10:37.874Z,5.68
2023-11-24T09:13:17.171Z,5.28
2023-11-24T09:16:00.444Z,5.28
2023-11-24T09:18:28.536Z,4.80
2023-11-24T09:21:01.175Z,5.28
2023-11-24T09:23:29.775Z,5.28
2023-11-24T09:26:18.228Z,4.60
2023-11-24T09:28:46.503Z,4.40
2023-11-24T09:31:17.582Z,5.00
2023-11-24T09:33:46.123Z,4.82
2023-11-24T09:36:16.009Z,4.97
2023-11-24T09:38:48.177Z,4.70
2023-11-24T09:41:18.747Z,4.85
2023-11-24T09:43:46.980Z,4.47
2023-11-24T09:46:15.557Z,5.20
2023-11-24T09:48:44.866Z,5.32
2023-11-24T09:51:18.446Z,6.38
2023-11-24T09:53:47.315Z,6.32
2023-11-24T09:56:15.574Z,5.82
2023-11-24T09:58:43.867Z,5.75
2023-11-24T10:01:25.854Z,6.30
2023-11-24T10:04:00.458Z,5.55
2023-11-24T10:07:07.298Z,5.32
2023-11-24T10:16:16.931Z,5.00
2023-11-24T10:18:45.076Z,5.60
2023-11-24T10:21:23.797Z,4.72
2023-11-24T10:23:59.964Z,4.95
2023-11-24T10:26:28.396Z,5.00
2023-11-24T10:28:59.015Z,4.90
2023-11-24T10:31:32.168Z,5.20
2023-11-24T10:34:01.456Z,4.93
2023-11-24T10:36:31.957Z,4.30
2023-11-24T10:39:04.172Z,4.80
2023-11-24T10:41:41.932Z,4.40
2023-11-24T10:44:15.864Z,4.10
2023-11-24T10:46:49.357Z,4.30
2023-11-24T10:49:26.588Z,4.03
2023-11-24T10:52:03.598Z,3.65
2023-11-24T10:54:43.699Z,3.40
2023-11-24T10:57:26.825Z,2.75
2023-11-24T10:59:58.677Z,3.00
2023-11-24T11:02:31.090Z,4.03
2023-11-24T11:05:06.640Z,3.60
2023-11-24T11:07:54.760Z,3.95
2023-11-24T11:10:28.103Z,3.47
2023-11-24T11:13:05.424Z,4.05
2023-11-24T11:15:38.003Z,4.05
2023-11-24T11:18:10.749Z,4.07
2023-11-24T11:20:39.646Z,3.92
2023-11-24T11:23:13.542Z,3.70
2023-11-24T11:26:06.076Z,4.43
2023-11-24T11:29:07.542Z,3.72
2023-11-24T11:31:40.079Z,3.70
2023-11-24T11:39:14.093Z,4.22
2023-11-24T11:46:18.786Z,4.70
2023-11-24T12:16:06.905Z,5.32
2023-11-24T12:19:05.813Z,4.40
2023-11-24T12:22:40.858Z,4.38
2023-11-24T12:33:57.193Z,3.38
2023-11-24T12:41:42.362Z,2.30
2023-11-24T12:53:28.613Z,2.75
2023-11-24T12:57:13.176Z,2.33
2023-11-24T13:05:11.111Z,3.30
2023-11-24T13:13:45.476Z,2.33
2023-11-24T13:33:22.503Z,2.50
2023-11-24T13:41:18.843Z,3.80
2023-11-24T13:53:59.513Z,3.75
2023-11-24T14:02:01.426Z,3.65
2023-11-24T14:18:03.577Z,3.13
2023-11-24T14:21:18.602Z,4.22
2023-11-24T14:24:17.230Z,2.65
2023-11-24T14:26:50.767Z,2.88
2023-11-24T14:29:43.662Z,3.30
2023-11-24T14:32:19.370Z,3.95
2023-11-24T14:35:22.214Z,4.15
2023-11-24T14:46:43.611Z,2.25
2023-11-24T15:01:43.473Z,1.23
2023-11-24T15:23:26.990Z,1.80
2023-11-24T16:04:57.761Z,4.10
2023-11-24T16:07:35.970Z,6.00
2023-11-24T16:10:31.244Z,6.32
2023-11-24T16:13:14.088Z,9.77
2023-11-24T16:16:08.367Z,32.53
2023-11-24T16:18:55.605Z,24.05
2023-11-24T16:21:26.748Z,4.85
2023-11-24T16:23:59.272Z,4.13
2023-11-24T16:27:05.376Z,4.20
2023-11-24T16:29:34.666Z,6.03
2023-11-24T16:32:40.846Z,4.50
2023-11-24T16:35:13.206Z,3.97
2023-11-24T16:38:18.127Z,4.63
2023-11-24T16:40:47.555Z,4.20
2023-11-24T16:43:21.857Z,3.90
2023-11-24T16:45:51.501Z,3.30
2023-11-24T16:48:21.771Z,3.67
2023-11-24T16:50:53.296Z,3.95
2023-11-24T16:53:29.193Z,4.05
2023-11-24T16:55:57.801Z,3.60
2023-11-24T16:58:35.422Z,5.80
2023-11-24T17:01:09.504Z,4.68
2023-11-24T17:03:46.062Z,5.53
2023-11-24T17:07:05.309Z,7.25
2023-11-24T17:09:35.094Z,10.57
2023-11-24T17:12:27.723Z,17.35
2023-11-24T17:15:33.098Z,16.65
2023-11-24T17:18:02.831Z,16.75
2023-11-24T17:20:30.925Z,16.65
2023-11-24T17:22:58.938Z,14.65
2023-11-24T17:25:37.415Z,18.70
2023-11-24T17:29:03.534Z,15.43
2023-11-24T17:31:35.292Z,15.45
2023-11-24T17:34:03.633Z,14.93
2023-11-24T17:36:31.860Z,14.43
2023-11-24T17:39:16.502Z,14.68
2023-11-24T17:41:46.222Z,14.38
2023-11-24T17:44:17.440Z,14.18
2023-11-24T17:46:47.182Z,15.32
2023-11-24T17:49:42.482Z,15.65
2023-11-24T17:52:16.686Z,15.07
2023-11-24T17:55:06.768Z,14.32
2023-11-24T17:57:49.940Z,47.83
2023-11-24T18:00:26.295Z,36.72
2023-11-24T18:03:55.966Z,28.92
2023-11-24T18:06:36.466Z,20.63
2023-11-24T18:13:37.174Z,14.55
2023-11-24T18:20:31.299Z,14.00
2023-11-24T18:27:11.186Z,14.57
2023-11-24T18:34:13.156Z,18.20
2023-11-24T18:41:07.133Z,17.85
2023-11-24T18:43:40.501Z,27.63
2023-11-24T18:46:13.470Z,26.25
2023-11-24T18:49:25.455Z,23.17
2023-11-24T18:51:58.222Z,23.33
2023-11-24T19:02:54.709Z,25.65
2023-11-24T19:05:55.651Z,24.58
2023-11-24T19:08:27.566Z,19.92
2023-11-24T19:11:14.198Z,20.65
2023-11-24T19:14:45.368Z,19.13
2023-11-24T19:25:58.860Z,24.52
2023-11-24T19:32:53.430Z,24.58
2023-11-24T19:35:35.137Z,25.15
2023-11-24T19:42:41.498Z,24.08
2023-11-24T19:46:20.454Z,25.52
2023-11-24T19:49:20.448Z,25.02
2023-11-24T19:52:01.901Z,26.73
2023-11-24T19:54:30.580Z,26.52
2023-11-24T19:57:22.330Z,25.52
2023-11-24T20:00:13.457Z,23.83
2023-11-24T20:02:48.785Z,22.20
2023-11-24T20:09:07.370Z,17.98
2023-11-24T20:12:04.817Z,17.13
2023-11-24T20:14:34.575Z,16.98
2023-11-24T20:17:56.687Z,14.52
2023-11-24T20:48:46.143Z,13.85
2023-11-24T20:51:34.230Z,15.32
2023-11-24T20:54:04.970Z,16.13
2023-11-24T20:56:34.202Z,16.08
2023-11-24T20:59:29.596Z,16.25
2023-11-24T21:01:58.606Z,17.73
2023-11-24T21:04:27.280Z,17.98
2023-11-24T21:06:59.149Z,19.33
2023-11-24T21:09:29.517Z,17.75
2023-11-24T21:11:58.981Z,14.95
2023-11-24T21:14:28.873Z,15.57
2023-11-24T21:16:57.932Z,15.93
2023-11-24T21:19:26.802Z,16.00
2023-11-24T21:21:56.611Z,15.98
2023-11-24T21:24:26.138Z,16.17
2023-11-24T21:26:54.511Z,15.88
2023-11-24T21:29:23.756Z,15.07
2023-11-24T21:31:52.065Z,17.33
2023-11-24T21:34:20.406Z,20.52
2023-11-24T21:36:48.818Z,16.80
2023-11-24T21:39:19.123Z,16.48
2023-11-24T21:41:53.398Z,15.68
2023-11-24T21:48:11.280Z,14.85
2023-11-24T21:50:40.297Z,14.75
2023-11-24T21:53:29.034Z,15.45
2023-11-24T22:00:19.617Z,13.23
2023-11-24T22:45:03.635Z,10.93
2023-11-24T22:51:32.329Z,11.85
2023-11-24T22:58:20.020Z,10.80
2023-11-24T23:10:02.732Z,9.80
2023-11-24T23:12:31.642Z,10.70
2023-11-24T23:18:22.182Z,10.87
2023-11-24T23:20:58.995Z,10.50
2023-11-24T23:30:19.326Z,9.27
2023-11-24T23:41:24.496Z,9.60
2023-11-24T23:45:15.694Z,10.05
2023-11-24T23:51:32.136Z,10.85
2023-11-24T23:54:06.586Z,10.35
2023-11-24T23:56:53.687Z,10.27
